Time;durP1;ratioP1;P1;durP2;ratioP2;P2;SDS_P1;SDS_P2;PMS_P1;PMS_P2;Temp;Humidity;BMP_temperature;BMP_pressure;BME280_temperature;BME280_humidity;BME280_pressure;Samples;Min_cycle;Max_cycle;Signal;HPM_P1;HPM_P2
2022/12/28 00:00:54;;;;;;;12.20;6.22;;;;;;;1.86;74.40;101771.47;5064233;28;20033;-68
2022/12/28 00:03:20;;;;;;;11.15;5.43;;;;;;;1.83;74.61;101768.91;5059395;28;20033;-68
2022/12/28 00:05:45;;;;;;;12.68;6.40;;;;;;;1.79;74.97;101761.13;5061361;28;20113;-68
2022/12/28 00:08:11;;;;;;;13.75;6.32;;;;;;;1.87;74.94;101757.31;5065985;28;20028;-68
2022/12/28 00:10:36;;;;;;;13.30;6.18;;;;;;;1.62;74.42;101732.50;5066268;28;20039;-69
2022/12/28 00:13:02;;;;;;;12.82;6.13;;;;;;;1.63;75.11;101747.47;5066235;28;20033;-68
2022/12/28 00:15:27;;;;;;;12.38;6.28;;;;;;;1.75;75.08;101773.59;5063778;28;20380;-68
2022/12/28 00:17:53;;;;;;;12.77;6.82;;;;;;;1.67;75.41;101756.16;5057137;28;20028;-68
2022/12/28 00:20:18;;;;;;;13.68;6.88;;;;;;;1.61;75.52;101754.56;5057736;28;20104;-68
2022/12/28 00:22:44;;;;;;;13.48;6.57;;;;;;;1.80;74.97;101762.84;5051111;28;20486;-69
2022/12/28 00:25:09;;;;;;;14.32;6.50;;;;;;;1.81;75.30;101776.03;5049378;28;20507;-68
2022/12/28 00:27:34;;;;;;;9.80;6.25;;;;;;;1.75;75.35;101767.41;5063456;28;20040;-68
2022/12/28 00:30:00;;;;;;;15.05;6.93;;;;;;;1.61;75.53;101751.94;5062297;28;20017;-68
2022/12/28 00:32:25;;;;;;;12.73;6.45;;;;;;;1.69;75.78;101770.22;5060285;28;20077;-68
2022/12/28 00:34:51;;;;;;;13.70;6.50;;;;;;;1.68;75.73;101779.94;5063526;28;20024;-68
2022/12/28 00:37:16;;;;;;;12.35;6.03;;;;;;;1.63;75.83;101773.91;5051227;28;20036;-68
2022/12/28 00:39:42;;;;;;;11.43;6.20;;;;;;;1.62;75.57;101773.97;5064902;28;20444;-68
2022/12/28 00:42:08;;;;;;;11.55;6.32;;;;;;;1.59;75.94;101772.28;5064460;28;20119;-68
2022/12/28 00:44:33;;;;;;;13.93;6.15;;;;;;;1.58;76.38;101780.25;5070869;28;20029;-68
2022/12/28 00:46:59;;;;;;;12.05;6.40;;;;;;;1.52;76.82;101786.56;5086015;28;20485;-68
2022/12/28 00:49:24;;;;;;;12.02;5.57;;;;;;;1.42;76.58;101776.28;5073898;28;20034;-68
2022/12/28 00:51:49;;;;;;;9.70;6.28;;;;;;;1.42;76.76;101782.44;5070915;28;20020;-68
2022/12/28 00:54:15;;;;;;;11.82;5.95;;;;;;;1.41;77.28;101788.63;5075244;28;20031;-69
2022/12/28 00:56:43;;;;;;;10.52;5.95;;;;;;;1.32;77.65;101788.88;5077751;28;20052;-68
2022/12/28 00:59:09;;;;;;;11.93;6.30;;;;;;;1.24;77.47;101777.66;5075679;28;20027;-68
2022/12/28 01:01:35;;;;;;;10.13;5.95;;;;;;;1.31;77.60;101795.06;5069571;28;20056;-69
2022/12/28 01:04:00;;;;;;;11.20;6.18;;;;;;;1.25;77.75;101789.94;5069628;28;20727;-68
2022/12/28 01:06:27;;;;;;;11.98;6.25;;;;;;;1.20;77.79;101786.56;5069623;28;20086;-68
2022/12/28 01:08:52;;;;;;;14.15;5.97;;;;;;;1.17;78.05;101786.66;5069770;28;20040;-68
2022/12/28 01:11:21;;;;;;;14.77;6.50;;;;;;;1.11;77.85;101789.44;5064074;28;20021;-68
2022/12/28 01:13:48;;;;;;;11.05;5.35;;;;;;;1.07;78.10;101785.16;5063933;28;20520;-68
2022/12/28 01:16:19;;;;;;;9.57;5.43;;;;;;;1.03;78.61;101793.19;5067295;28;20024;-68
2022/12/28 01:18:46;;;;;;;10.88;6.22;;;;;;;0.98;79.20;101790.66;5068141;28;20102;-68
2022/12/28 01:21:14;;;;;;;10.10;5.95;;;;;;;0.94;79.59;101789.03;5067635;28;20024;-68
2022/12/28 01:23:40;;;;;;;13.23;6.25;;;;;;;0.87;79.42;101790.03;5068087;28;20406;-68
2022/12/28 01:26:06;;;;;;;10.57;6.10;;;;;;;0.83;80.19;101792.81;5067656;28;20405;-68
2022/12/28 01:28:31;;;;;;;10.82;5.90;;;;;;;0.80;80.72;101790.25;5067738;28;20028;-68
2022/12/28 01:31:08;;;;;;;10.80;6.13;;;;;;;0.75;80.75;101781.56;5067370;28;20475;-68
2022/12/28 01:33:33;;;;;;;11.77;5.85;;;;;;;0.74;80.99;101793.06;5067912;28;20028;-68
2022/12/28 01:36:05;;;;;;;11.73;6.47;;;;;;;0.68;80.98;101791.41;5067426;28;20036;-68
2022/12/28 01:38:31;;;;;;;14.13;6.07;;;;;;;0.66;81.09;101792.34;5067880;28;20037;-68
2022/12/28 01:40:56;;;;;;;10.18;5.97;;;;;;;0.64;81.07;101792.38;5066991;28;20099;-68
2022/12/28 01:43:39;;;;;;;11.95;5.95;;;;;;;0.61;80.98;101800.38;5067129;28;20026;-68
2022/12/28 01:46:05;;;;;;;12.48;6.00;;;;;;;0.60;82.15;101796.00;5063013;28;20038;-68
2022/12/28 01:48:33;;;;;;;13.13;5.70;;;;;;;0.47;81.85;101770.81;5067708;28;20032;-68
2022/12/28 01:50:59;;;;;;;14.77;6.10;;;;;;;0.51;81.90;101777.75;5067288;28;20029;-68
2022/12/28 01:53:24;;;;;;;10.43;5.88;;;;;;;0.48;82.09;101771.69;5066768;28;20674;-68
2022/12/28 01:55:50;;;;;;;10.75;6.15;;;;;;;0.50;82.26;101778.66;5067476;28;20032;-68
2022/12/28 01:58:27;;;;;;;11.95;5.53;;;;;;;0.44;82.19;101770.88;5067488;28;20574;-68
2022/12/28 02:00:52;;;;;;;10.63;5.13;;;;;;;0.46;82.85;101782.28;5067856;28;20036;-69
2022/12/28 02:03:22;;;;;;;8.23;5.40;;;;;;;0.41;83.01;101776.22;5066959;28;20025;-68
2022/12/28 02:05:51;;;;;;;10.55;5.65;;;;;;;0.31;83.83;101760.63;5067967;28;20024;-68
2022/12/28 02:08:32;;;;;;;9.25;5.25;;;;;;;0.27;84.09;101751.94;5067653;28;20023;-69
2022/12/28 02:10:57;;;;;;;9.50;5.22;;;;;;;0.29;84.14;101754.53;5065983;28;20854;-69
2022/12/28 02:13:24;;;;;;;12.30;5.63;;;;;;;0.35;84.12;101762.31;5067059;28;20111;-69
2022/12/28 02:15:50;;;;;;;12.70;5.38;;;;;;;0.13;84.43;101726.78;5066868;28;20463;-69
2022/12/28 02:18:18;;;;;;;8.98;4.90;;;;;;;0.27;84.50;101761.63;5067325;28;20036;-68
2022/12/28 02:20:58;;;;;;;11.40;5.40;;;;;;;0.32;84.82;101770.31;5066911;28;20431;-69
2022/12/28 02:23:47;;;;;;;8.48;5.00;;;;;;;0.27;85.26;101757.22;5065869;28;20029;-69
2022/12/28 02:26:31;;;;;;;7.65;4.65;;;;;;;0.34;84.98;101764.09;5052986;28;20467;-69
2022/12/28 02:29:02;;;;;;;9.43;4.80;;;;;;;0.37;85.13;101771.06;5065003;28;20029;-69
2022/12/28 02:31:53;;;;;;;10.00;5.40;;;;;;;0.36;84.88;101772.84;5066320;28;20473;-69
2022/12/28 02:34:32;;;;;;;9.25;5.05;;;;;;;0.35;85.08;101765.81;5065055;28;20099;-69
2022/12/28 02:37:04;;;;;;;9.63;5.30;;;;;;;0.39;84.74;101761.34;5062284;28;20040;-68
2022/12/28 02:39:36;;;;;;;8.77;4.88;;;;;;;0.28;84.69;101748.38;5066193;28;20052;-69
2022/12/28 02:42:04;;;;;;;9.90;5.53;;;;;;;0.42;84.70;101761.28;5066615;28;20427;-69
2022/12/28 02:50:06;;;;;;;11.35;5.35;;;;;;;0.34;84.84;101737.69;5066786;28;20035;-69
2022/12/28 02:52:43;;;;;;;13.75;5.78;;;;;;;0.54;84.72;101772.41;5064856;28;20032;-69
2022/12/28 02:58:24;;;;;;;;;;;;;;;0.53;84.82;101772.44;5070606;28;20542;-69
2022/12/28 03:01:08;;;;;;;8.52;5.07;;;;;;;0.51;84.69;101767.19;5069657;28;19916;-69
2022/12/28 03:04:02;;;;;;;10.85;5.85;;;;;;;0.49;83.89;101774.28;5070887;28;20071;-69
2022/12/28 03:09:34;;;;;;;13.45;6.05;;;;;;;0.42;82.98;101779.75;5070957;28;19954;-69
2022/12/28 03:12:13;;;;;;;13.23;6.03;;;;;;;0.22;83.21;101735.34;5070391;28;20115;-69
2022/12/28 03:14:52;;;;;;;14.13;6.05;;;;;;;0.33;82.96;101759.72;5070546;28;20036;-69
2022/12/28 03:31:17;;;;;;;14.50;6.57;;;;;;;0.19;84.89;101759.16;5070650;28;20138;-69
2022/12/28 03:33:49;;;;;;;13.20;6.28;;;;;;;0.07;85.08;101738.34;5070513;28;20021;-68
2022/12/28 03:36:27;;;;;;;12.95;6.38;;;;;;;0.08;85.56;101741.81;5070341;28;20032;-68
2022/12/28 03:38:55;;;;;;;12.63;6.00;;;;;;;0.20;85.84;101749.47;5070786;28;20033;-68
2022/12/28 03:44:39;;;;;;;11.82;5.25;;;;;;;0.17;85.50;101755.69;5070296;28;20548;-69
2022/12/28 03:47:09;;;;;;;12.60;5.50;;;;;;;0.15;85.48;101757.50;5070444;28;20414;-68
2022/12/28 03:49:36;;;;;;;11.93;5.75;;;;;;;-0.03;84.99;101728.91;5070313;28;20474;-69
2022/12/28 03:52:02;;;;;;;12.77;5.40;;;;;;;0.09;84.88;101752.34;5068968;28;20478;-69
2022/12/28 03:54:27;;;;;;;14.13;5.75;;;;;;;0.08;85.22;101755.91;5069619;28;20032;-69
2022/12/28 03:56:53;;;;;;;11.88;5.85;;;;;;;0.03;85.09;101753.34;5069816;28;20030;-69
2022/12/28 03:59:18;;;;;;;10.88;5.18;;;;;;;-0.01;85.38;101754.34;5069986;28;20044;-69
2022/12/28 04:01:44;;;;;;;10.20;5.97;;;;;;;-0.01;85.19;101761.38;5069928;28;20024;-68
2022/12/28 04:04:10;;;;;;;9.52;5.30;;;;;;;-0.19;85.69;101733.63;5069949;28;20044;-69
2022/12/28 04:06:36;;;;;;;10.57;5.40;;;;;;;-0.12;86.45;101748.41;5068361;28;20028;-69
2022/12/28 04:09:01;;;;;;;10.55;5.10;;;;;;;-0.15;86.23;101745.88;5069155;28;20028;-69
2022/12/28 04:11:27;;;;;;;7.30;4.63;;;;;;;-0.33;85.99;101721.63;5068070;28;20040;-69
2022/12/28 04:13:52;;;;;;;10.00;4.93;;;;;;;-0.19;86.16;101756.50;5070090;28;20052;-69
2022/12/28 04:16:18;;;;;;;11.38;5.15;;;;;;;-0.22;85.77;101748.66;5067903;28;20020;-69
2022/12/28 04:18:43;;;;;;;11.95;5.50;;;;;;;-0.25;86.03;101751.34;5069849;28;20028;-69
2022/12/28 04:21:10;;;;;;;8.93;5.05;;;;;;;-0.24;86.61;101763.63;5068226;28;20094;-69
2022/12/28 04:23:35;;;;;;;11.57;5.38;;;;;;;-0.29;87.29;101755.81;5069793;28;20028;-68
2022/12/28 04:26:08;;;;;;;10.25;5.10;;;;;;;-0.32;87.35;101744.47;5069344;28;20086;-69
2022/12/28 04:28:34;;;;;;;10.38;5.40;;;;;;;-0.37;87.93;101738.41;5069566;28;20103;-68
2022/12/28 04:31:01;;;;;;;10.02;5.20;;;;;;;-0.32;88.03;101753.22;5069577;28;20028;-68
2022/12/28 04:33:27;;;;;;;10.70;5.70;;;;;;;-0.34;88.14;101751.53;5069232;28;20044;-69
2022/12/28 04:35:53;;;;;;;13.68;5.47;;;;;;;-0.33;88.53;101756.78;5069506;28;20444;-68
2022/12/28 04:38:20;;;;;;;12.55;5.95;;;;;;;-0.37;88.68;101749.84;5069448;28;20436;-68
2022/12/28 04:40:46;;;;;;;9.68;5.68;;;;;;;-0.34;88.59;101756.81;5068887;28;20383;-68
2022/12/28 04:43:11;;;;;;;8.60;5.38;;;;;;;-0.34;88.94;101757.69;5069391;28;20071;-68
2022/12/28 04:45:37;;;;;;;11.95;6.03;;;;;;;-0.37;88.77;101746.31;5069168;28;20063;-68
2022/12/28 04:48:03;;;;;;;14.10;6.18;;;;;;;-0.34;88.88;101749.78;5068921;28;20398;-68
2022/12/28 04:50:28;;;;;;;11.63;5.93;;;;;;;-0.41;88.88;101742.91;5068807;28;20025;-68
2022/12/28 04:52:54;;;;;;;11.05;6.03;;;;;;;-0.57;88.49;101708.97;5069343;28;20031;-68
2022/12/28 04:55:19;;;;;;;13.05;6.35;;;;;;;-0.39;88.80;101745.47;5068679;28;20115;-68
2022/12/28 04:57:46;;;;;;;10.13;6.03;;;;;;;-0.39;88.67;101737.56;5069343;28;20033;-69
2022/12/28 05:00:13;;;;;;;15.50;6.55;;;;;;;-0.42;88.38;101735.88;5068846;28;20044;-69
2022/12/28 05:02:39;;;;;;;12.68;5.82;;;;;;;-0.43;88.27;101739.41;5068637;28;20035;-69
2022/12/28 05:05:05;;;;;;;11.88;6.20;;;;;;;-0.45;88.25;101733.31;5068832;28;20032;-69
2022/12/28 05:07:31;;;;;;;13.25;6.63;;;;;;;-0.47;88.02;101726.34;5067652;28;20029;-69
2022/12/28 05:09:56;;;;;;;11.27;6.13;;;;;;;-0.55;88.13;101723.84;5068173;28;20036;-69
2022/12/28 05:12:22;;;;;;;10.52;5.55;;;;;;;-0.53;87.89;101723.81;5068185;28;20047;-68
2022/12/28 05:14:47;;;;;;;14.63;6.35;;;;;;;-0.66;87.66;101702.13;5067802;28;20040;-68
2022/12/28 05:17:13;;;;;;;15.43;6.65;;;;;;;-0.75;87.38;101697.03;5064422;28;20081;-68
2022/12/28 05:19:39;;;;;;;10.20;6.18;;;;;;;-0.64;87.30;101710.84;5065863;28;20032;-69
2022/12/28 05:22:10;;;;;;;10.48;5.53;;;;;;;-0.62;87.69;101718.72;5068208;28;20028;-69
2022/12/28 05:24:36;;;;;;;12.75;5.72;;;;;;;-0.70;87.98;101699.59;5068677;28;20452;-68
2022/12/28 05:27:02;;;;;;;12.43;5.32;;;;;;;-0.71;88.44;101696.09;5067764;28;20033;-68
2022/12/28 05:29:27;;;;;;;12.88;5.68;;;;;;;-0.73;89.06;101695.25;5068199;28;20024;-69
2022/12/28 05:31:53;;;;;;;11.73;5.75;;;;;;;-0.71;89.63;101690.81;5068475;28;20411;-69
2022/12/28 05:34:18;;;;;;;12.82;5.97;;;;;;;-0.64;90.55;101694.22;5068001;28;20024;-69
2022/12/28 05:36:43;;;;;;;11.80;6.85;;;;;;;-0.65;91.13;101693.31;5068796;28;20036;-69
2022/12/28 05:39:09;;;;;;;12.10;5.60;;;;;;;-0.68;91.41;101690.75;5067715;28;20049;-69
2022/12/28 05:41:34;;;;;;;10.38;5.93;;;;;;;-0.56;91.76;101708.06;5067444;28;20549;-69
2022/12/28 05:44:00;;;;;;;11.27;6.63;;;;;;;-0.55;91.79;101708.03;5067469;28;20043;-69
2022/12/28 05:46:27;;;;;;;16.95;6.40;;;;;;;-0.62;92.21;101685.38;5067010;28;20024;-69
2022/12/28 05:48:54;;;;;;;12.02;5.97;;;;;;;-0.47;92.25;101700.00;5067722;28;20028;-69
2022/12/28 05:51:21;;;;;;;11.15;6.20;;;;;;;-0.42;92.30;101711.31;5067204;28;20051;-68
2022/12/28 05:53:47;;;;;;;12.05;6.90;;;;;;;-0.42;91.86;101717.44;5067765;28;20538;-68
2022/12/28 05:56:15;;;;;;;12.02;6.57;;;;;;;-0.41;91.13;101716.56;5067136;28;20433;-68
2022/12/28 05:58:42;;;;;;;11.60;5.80;;;;;;;-0.41;90.51;101713.03;5066286;28;20040;-68
2022/12/28 06:01:09;;;;;;;17.05;7.15;;;;;;;-0.40;90.16;101726.19;5066696;28;20040;-69
2022/12/28 06:03:36;;;;;;;11.93;6.63;;;;;;;-0.38;90.52;101724.38;5067406;28;20077;-69
2022/12/28 06:06:04;;;;;;;14.27;6.75;;;;;;;-0.44;90.85;101706.06;5064772;28;20024;-69
2022/12/28 06:08:30;;;;;;;10.55;6.78;;;;;;;-0.37;91.36;101712.06;5067355;28;20090;-68
2022/12/28 06:10:59;;;;;;;17.75;6.97;;;;;;;-0.39;91.01;101713.84;5067292;28;20454;-68
2022/12/28 06:13:25;;;;;;;15.63;7.72;;;;;;;-0.42;90.94;101719.22;5065064;28;20033;-69
2022/12/28 06:15:50;;;;;;;16.25;8.38;;;;;;;-0.40;90.78;101720.03;5074353;28;20055;-69
2022/12/28 06:18:15;;;;;;;14.45;7.22;;;;;;;-0.49;89.93;101713.19;5087007;28;20051;-69
2022/12/28 06:20:41;;;;;;;16.08;8.23;;;;;;;-0.43;89.39;101728.88;5067976;28;20061;-69
2022/12/28 06:23:06;;;;;;;17.17;8.05;;;;;;;-0.45;88.83;101728.03;5067406;28;20482;-69
2022/12/28 06:25:32;;;;;;;15.65;7.45;;;;;;;-0.46;88.79;101722.78;5066457;28;20031;-68
2022/12/28 06:27:58;;;;;;;16.45;7.43;;;;;;;-0.57;88.69;101704.59;5067167;28;20040;-69
2022/12/28 06:30:23;;;;;;;16.77;7.80;;;;;;;-0.48;88.78;101721.97;5067507;28;20016;-69
2022/12/28 06:32:48;;;;;;;14.68;8.07;;;;;;;-0.66;88.79;101702.13;5067262;28;20040;-69
2022/12/28 06:35:14;;;;;;;19.73;7.30;;;;;;;-0.59;89.10;101718.66;5067754;28;20713;-68
2022/12/28 06:37:39;;;;;;;14.93;8.10;;;;;;;-0.76;89.14;101692.69;5067150;28;20028;-68
2022/12/28 06:40:05;;;;;;;20.83;8.32;;;;;;;-0.71;89.31;101703.97;5058489;28;20548;-69
2022/12/28 06:42:32;;;;;;;16.88;8.45;;;;;;;-0.59;89.75;101730.09;5063903;28;20053;-68
2022/12/28 06:44:57;;;;;;;15.52;8.25;;;;;;;-0.60;89.63;101717.81;5064993;28;20046;-68
2022/12/28 06:47:23;;;;;;;15.30;8.48;;;;;;;-0.70;89.80;101705.75;5064574;28;20047;-68
2022/12/28 06:49:48;;;;;;;13.93;7.90;;;;;;;-0.69;89.92;101711.84;5064646;28;20413;-68
2022/12/28 06:52:13;;;;;;;19.55;8.38;;;;;;;-0.65;90.08;101730.22;5066138;28;20036;-68
2022/12/28 06:54:39;;;;;;;16.35;8.10;;;;;;;-0.73;90.29;101726.00;5066488;28;20036;-68
2022/12/28 06:57:04;;;;;;;18.15;8.95;;;;;;;-0.67;90.47;101723.25;5066516;28;20026;-68
2022/12/28 06:59:30;;;;;;;14.43;8.23;;;;;;;-0.82;90.75;101699.81;5066347;28;20032;-68
2022/12/28 07:01:55;;;;;;;21.33;8.57;;;;;;;-0.64;90.89;101734.56;5066883;28;20083;-68
2022/12/28 07:04:21;;;;;;;20.65;8.77;;;;;;;-0.65;91.27;101730.22;5066615;28;20028;-68
2022/12/28 07:06:46;;;;;;;21.17;9.07;;;;;;;-0.68;91.71;101719.72;5067143;28;20048;-68
2022/12/28 07:09:14;;;;;;;19.77;9.63;;;;;;;-0.65;91.68;101738.09;5066710;28;20025;-68
2022/12/28 07:11:40;;;;;;;28.98;12.88;;;;;;;-0.62;91.99;101742.44;5066816;28;20033;-68
2022/12/28 07:14:06;;;;;;;38.17;14.75;;;;;;;-0.62;92.29;101745.94;5066808;28;20729;-68
2022/12/28 07:16:31;;;;;;;47.20;18.42;;;;;;;-0.61;92.38;101747.69;5066629;28;20052;-68
2022/12/28 07:18:58;;;;;;;40.47;18.67;;;;;;;-0.75;92.42;101710.22;5066645;28;20109;-68
2022/12/28 07:21:26;;;;;;;46.22;20.75;;;;;;;-0.56;92.30;101742.31;5066556;28;20033;-68
2022/12/28 07:23:53;;;;;;;52.75;21.35;;;;;;;-0.65;92.59;101732.84;5066651;28;20036;-68
2022/12/28 07:26:22;;;;;;;53.08;23.50;;;;;;;-0.52;92.85;101741.34;5065074;28;20021;-68
2022/12/28 07:28:51;;;;;;;61.58;26.42;;;;;;;-0.52;92.83;101736.97;5067006;28;20025;-69
2022/12/28 07:31:22;;;;;;;54.47;23.67;;;;;;;-0.50;92.66;101740.44;5066691;28;20116;-68
2022/12/28 07:33:49;;;;;;;56.60;24.33;;;;;;;-0.54;92.76;101730.00;5067069;28;20424;-69
2022/12/28 07:36:17;;;;;;;59.88;24.92;;;;;;;-0.43;93.45;101744.69;5066339;28;20035;-69
2022/12/28 07:38:43;;;;;;;57.63;23.38;;;;;;;-0.43;93.61;101738.53;5066282;28;20032;-69
2022/12/28 07:41:20;;;;;;;51.72;21.48;;;;;;;-0.35;94.04;101745.38;5066502;28;20082;-69
2022/12/28 07:43:46;;;;;;;47.78;20.27;;;;;;;-0.37;94.18;101720.84;5068253;28;20037;-69
2022/12/28 07:46:14;;;;;;;44.78;19.52;;;;;;;-0.26;94.36;101733.78;5069570;28;20024;-69
2022/12/28 07:48:41;;;;;;;43.15;19.90;;;;;;;-0.21;94.45;101734.56;5068696;28;20115;-69
2022/12/28 07:51:10;;;;;;;50.08;19.05;;;;;;;-0.10;94.51;101751.00;5070160;28;20032;-69
2022/12/28 07:53:36;;;;;;;37.00;17.88;;;;;;;-0.34;94.39;101697.06;5070246;28;20040;-69
2022/12/28 07:56:02;;;;;;;34.42;15.30;;;;;;;-0.06;94.48;101735.09;5070140;28;20416;-69
2022/12/28 07:58:28;;;;;;;33.60;16.30;;;;;;;0.07;94.67;101726.91;5069471;28;20103;-69
2022/12/28 08:01:22;;;;;;;31.98;14.32;;;;;;;0.20;94.88;101745.06;5068333;28;20078;-68
2022/12/28 08:03:52;;;;;;;26.45;13.50;;;;;;;0.28;94.61;101740.47;5064751;28;20056;-69
2022/12/28 08:06:19;;;;;;;30.25;13.80;;;;;;;0.38;94.61;101736.72;5069457;28;20025;-68
2022/12/28 08:08:47;;;;;;;26.38;14.35;;;;;;;0.46;94.27;101739.19;5069937;28;20055;-69
2022/12/28 08:11:15;;;;;;;27.05;11.85;;;;;;;0.52;94.25;101734.63;5069417;28;20048;-69
2022/12/28 08:13:43;;;;;;;22.85;11.43;;;;;;;0.59;93.83;101722.13;5069725;28;20403;-69
2022/12/28 08:16:11;;;;;;;26.95;11.10;;;;;;;0.73;94.13;101720.88;5069538;28;20025;-69
2022/12/28 08:18:39;;;;;;;21.13;10.98;;;;;;;0.90;93.93;101738.94;5069709;28;20476;-69
2022/12/28 08:21:07;;;;;;;22.73;11.50;;;;;;;0.98;93.71;101727.28;5068134;28;20024;-69
2022/12/28 08:23:32;;;;;;;23.60;11.82;;;;;;;1.09;93.04;101734.91;5069115;28;20020;-69
2022/12/28 08:26:09;;;;;;;24.65;11.88;;;;;;;1.04;92.70;101692.78;5069516;28;20074;-69
2022/12/28 08:28:36;;;;;;;33.30;14.48;;;;;;;1.38;92.24;101724.41;5069219;28;20509;-69
2022/12/28 08:31:11;;;;;;;28.65;16.38;;;;;;;1.48;91.66;101721.47;5069277;28;20024;-69
2022/12/28 08:33:36;;;;;;;25.83;14.77;;;;;;;1.63;91.09;101723.69;5069312;28;20052;-69
2022/12/28 08:36:06;;;;;;;29.95;16.83;;;;;;;1.74;90.03;101728.66;5069484;28;20025;-69
2022/12/28 08:38:32;;;;;;;30.40;17.38;;;;;;;1.85;89.05;101723.91;5069077;28;20047;-69
2022/12/28 08:41:00;;;;;;;32.67;16.75;;;;;;;2.01;87.86;101725.19;5069023;28;20082;-69
2022/12/28 08:43:27;;;;;;;32.70;16.70;;;;;;;2.13;87.17;101730.09;5067253;28;20044;-69
2022/12/28 08:46:02;;;;;;;31.75;16.10;;;;;;;2.23;86.00;101721.81;5069641;28;20040;-69
2022/12/28 08:48:28;;;;;;;29.25;16.52;;;;;;;2.28;85.22;101713.72;5069531;28;20886;-69
2022/12/28 08:50:59;;;;;;;32.90;16.60;;;;;;;2.25;84.65;101704.13;5069612;28;20056;-68
2022/12/28 08:53:24;;;;;;;31.63;14.90;;;;;;;2.42;84.07;101709.72;5069140;28;20633;-68
2022/12/28 08:55:50;;;;;;;26.30;14.18;;;;;;;2.58;83.76;101722.47;5068468;28;20081;-68
2022/12/28 08:58:16;;;;;;;23.80;12.35;;;;;;;2.66;82.92;101716.00;5068822;28;20482;-69
2022/12/28 09:00:42;;;;;;;24.75;13.52;;;;;;;2.76;81.93;101716.53;5068587;28;20032;-68
2022/12/28 09:03:07;;;;;;;22.85;12.13;;;;;;;2.91;81.05;101724.88;5067373;28;20043;-69
2022/12/28 09:05:36;;;;;;;22.27;12.02;;;;;;;2.98;80.82;101718.44;5068493;28;20029;-69
2022/12/28 09:08:02;;;;;;;20.85;12.10;;;;;;;3.01;79.90;101702.44;5068832;28;20048;-68
2022/12/28 09:10:27;;;;;;;20.75;11.40;;;;;;;3.21;79.10;101715.84;5068218;28;20459;-68
2022/12/28 09:12:52;;;;;;;23.15;12.02;;;;;;;3.29;78.85;101712.94;5068931;28;20501;-69
2022/12/28 09:15:18;;;;;;;19.60;10.63;;;;;;;3.33;78.30;101698.63;5068339;28;20800;-68
2022/12/28 09:17:43;;;;;;;16.00;9.70;;;;;;;3.44;77.87;101697.31;5068410;28;20024;-68
2022/12/28 09:20:09;;;;;;;20.63;10.70;;;;;;;3.48;77.56;101688.31;5068490;28;20064;-68
2022/12/28 09:22:35;;;;;;;17.45;10.07;;;;;;;3.66;77.30;101698.25;5068168;28;20041;-68
2022/12/28 09:25:00;;;;;;;18.27;10.05;;;;;;;3.81;76.96;101697.66;5068355;28;20016;-68
2022/12/28 09:27:25;;;;;;;18.63;10.20;;;;;;;3.89;76.77;101684.97;5067937;28;20020;-68
2022/12/28 09:29:51;;;;;;;18.20;10.23;;;;;;;4.11;75.71;101703.56;5066946;28;20115;-68
2022/12/28 09:32:16;;;;;;;22.10;10.63;;;;;;;4.16;74.68;101688.34;5067929;28;20101;-69
2022/12/28 09:34:42;;;;;;;19.92;10.10;;;;;;;4.31;74.06;101687.72;5068170;28;20024;-68
2022/12/28 09:37:07;;;;;;;16.88;9.25;;;;;;;4.44;73.35;101679.19;5068087;28;20032;-68
2022/12/28 09:39:33;;;;;;;14.82;8.52;;;;;;;4.57;72.87;101680.41;5067536;28;20210;-68
2022/12/28 09:42:20;;;;;;;12.85;6.75;;;;;;;4.67;72.06;101678.22;5068216;28;20029;-68
2022/12/28 09:45:00;;;;;;;13.00;7.95;;;;;;;4.77;71.34;101674.25;5068059;28;20085;-68
2022/12/28 09:47:51;;;;;;;12.68;7.05;;;;;;;4.90;71.07;101667.47;5067953;28;20028;-68
2022/12/28 09:50:16;;;;;;;11.48;6.75;;;;;;;5.01;70.39;101667.91;5067634;28;20451;-68
2022/12/28 09:53:22;;;;;;;11.68;7.22;;;;;;;5.09;69.63;101663.09;5068014;28;20025;-69
2022/12/28 09:55:58;;;;;;;12.52;5.75;;;;;;;5.23;69.67;101657.16;5067193;28;20047;-69
2022/12/28 09:58:23;;;;;;;13.27;5.68;;;;;;;5.23;68.81;101647.41;5066888;28;20040;-68
2022/12/28 10:00:55;;;;;;;13.00;7.28;;;;;;;5.34;69.06;101646.91;5067703;28;20020;-68
2022/12/28 10:03:22;;;;;;;15.18;8.40;;;;;;;5.48;68.45;101644.50;5067457;28;20068;-68
2022/12/28 10:05:50;;;;;;;17.25;9.13;;;;;;;5.39;68.84;101615.66;5066417;28;20078;-68
2022/12/28 10:08:20;;;;;;;17.67;8.93;;;;;;;5.62;68.11;101644.72;5066163;28;20087;-68
2022/12/28 10:10:46;;;;;;;15.27;8.23;;;;;;;5.45;68.03;101602.91;5066807;28;20458;-68
2022/12/28 10:13:14;;;;;;;11.75;6.88;;;;;;;5.75;67.71;101628.13;5066295;28;20040;-68
2022/12/28 10:15:40;;;;;;;12.15;6.38;;;;;;;5.81;67.96;101627.81;5066694;28;20024;-68
2022/12/28 10:18:05;;;;;;;16.33;8.70;;;;;;;5.87;66.94;101618.72;5066706;28;20078;-69
2022/12/28 10:20:31;;;;;;;16.17;8.45;;;;;;;5.81;67.15;101600.34;5066681;28;20029;-68
2022/12/28 10:22:58;;;;;;;16.67;8.05;;;;;;;6.00;67.41;101612.69;5066969;28;20079;-67
2022/12/28 10:25:25;;;;;;;15.35;6.68;;;;;;;6.10;67.67;101611.31;5065670;28;20029;-68
2022/12/28 10:27:51;;;;;;;13.45;7.28;;;;;;;6.17;67.16;101618.09;5065238;28;20028;-69
2022/12/28 10:30:19;;;;;;;14.30;7.63;;;;;;;6.24;67.19;101616.84;5064503;28;20039;-69
2022/12/28 10:32:56;;;;;;;10.60;5.88;;;;;;;6.35;67.08;101618.97;5064243;28;20036;-69
2022/12/28 10:35:28;;;;;;;16.75;10.25;;;;;;;6.37;66.31;101599.31;5054147;28;20024;-69
2022/12/28 10:38:03;;;;;;;10.60;5.20;;;;;;;6.49;65.51;101601.34;5065062;28;20608;-68
2022/12/28 10:40:33;;;;;;;6.28;3.83;;;;;;;6.53;65.06;101602.94;5061910;28;20044;-68
2022/12/28 10:42:59;;;;;;;6.53;3.83;;;;;;;6.55;65.25;101595.69;5046878;28;20767;-68
2022/12/28 10:45:36;;;;;;;10.23;4.22;;;;;;;6.54;65.48;101579.78;5046262;28;20040;-68
2022/12/28 10:48:08;;;;;;;5.72;3.00;;;;;;;6.61;65.53;101594.56;5059598;28;20462;-68
2022/12/28 10:50:46;;;;;;;8.18;3.75;;;;;;;6.64;66.58;101597.03;5048682;28;20025;-68
2022/12/28 10:53:21;;;;;;;10.40;4.03;;;;;;;6.65;66.75;101591.63;5059575;28;20628;-68
2022/12/28 10:55:47;;;;;;;9.25;4.45;;;;;;;6.68;66.71;101585.28;5052659;28;20032;-68
2022/12/28 10:58:22;;;;;;;12.90;5.97;;;;;;;6.72;67.26;101585.06;5049824;28;20264;-68
2022/12/28 11:00:56;;;;;;;15.77;7.82;;;;;;;6.72;67.31;101582.38;5046812;28;20028;-68
2022/12/28 11:03:59;;;;;;;12.95;7.80;;;;;;;6.75;67.64;101587.53;5046244;28;20091;-68
2022/12/28 11:06:28;;;;;;;14.23;7.07;;;;;;;6.79;67.65;101585.59;5045968;28;20647;-68
2022/12/28 11:09:04;;;;;;;14.52;8.27;;;;;;;6.86;68.30;101579.84;5046334;28;20393;-68
2022/12/28 11:11:31;;;;;;;13.25;6.95;;;;;;;6.78;67.74;101560.72;5046393;28;20017;-69
2022/12/28 11:14:12;;;;;;;11.40;6.20;;;;;;;6.87;66.76;101567.41;5060124;28;20482;-69
2022/12/28 11:16:39;;;;;;;10.35;5.55;;;;;;;6.93;66.30;101567.03;5059702;28;20044;-67
2022/12/28 11:19:05;;;;;;;11.93;6.07;;;;;;;6.95;66.02;101555.38;5058895;28;20017;-68
2022/12/28 11:21:33;;;;;;;11.68;4.57;;;;;;;7.03;65.01;101555.81;5049980;28;20063;-67
2022/12/28 11:23:58;;;;;;;11.38;4.57;;;;;;;6.95;64.32;101543.84;5064896;28;20028;-68
2022/12/28 11:26:26;;;;;;;8.90;4.28;;;;;;;7.03;63.84;101542.47;5059384;28;20028;-68
2022/12/28 11:28:53;;;;;;;9.40;4.25;;;;;;;7.22;62.87;101550.34;5053167;28;20024;-67
2022/12/28 11:31:30;;;;;;;9.32;3.80;;;;;;;7.30;63.14;101552.59;5062577;28;20479;-68
2022/12/28 11:34:03;;;;;;;7.95;4.05;;;;;;;7.30;63.63;101550.78;5061811;28;20040;-68
2022/12/28 11:36:31;;;;;;;8.23;3.92;;;;;;;7.27;62.82;101550.97;5055419;28;20375;-68
2022/12/28 11:38:57;;;;;;;10.95;3.70;;;;;;;7.22;62.51;101536.16;5063379;28;20036;-68
2022/12/28 11:41:22;;;;;;;7.97;3.35;;;;;;;7.43;61.80;101564.31;5049244;28;20055;-68
2022/12/28 11:43:56;;;;;;;7.68;4.10;;;;;;;7.43;61.42;101542.97;5064845;28;20038;-68
2022/12/28 11:46:21;;;;;;;5.40;3.03;;;;;;;7.50;61.19;101539.88;5053812;28;20029;-68
2022/12/28 11:49:02;;;;;;;3.90;2.67;;;;;;;7.55;61.59;101544.97;5065877;28;20135;-68
2022/12/28 11:51:30;;;;;;;6.07;3.55;;;;;;;7.61;61.34;101547.28;5049751;28;20025;-67
2022/12/28 11:54:18;;;;;;;7.55;3.03;;;;;;;7.68;60.68;101537.97;5049715;28;20030;-68
2022/12/28 11:56:43;;;;;;;9.88;3.88;;;;;;;7.76;60.30;101533.06;5049385;28;20034;-69